• Join FlightAware (Why Join?)
  • Login
  • US Flag 
05:33AM EDT


 

Airport Tracker/Info


-or-


 

Live Flight TrackerFlight Track Log ✈ JEX1486 ✈ 24-Apr-2013 ✈ RJOK / KCZ - RJTT / HND

Flight Track Log - Related Links

Times and Time Zones

All times are in EDT time to prevent confusion due to time zone crossing. See the JEX1486 flight status page for this flight to view local times or setup timezone preferences in your user account.

Time Position Orientation Groundspeed Altitude Reporting Facility
EDT Latitude Longitude Course Direction KTS MPH feet Rate Location/Type
11:32PM 33.6804 134.0430 67° East  Level Estimated
11:33PM 33.7249 134.1678 67° East  Level Estimated
11:34PM 33.7693 134.2927 67° East  Level Estimated
11:35PM 33.8135 134.4178 67° East  Level Estimated
11:36PM 33.8577 134.5429 67° East  Level Estimated
11:37PM 33.9017 134.6682 67° East  Level Estimated
11:38PM 33.9455 134.7937 67° East  Level Estimated
11:39PM 33.9893 134.9192 67° East  Level Estimated
11:40PM 34.0329 135.0449 67° East  Level Estimated
11:41PM 34.0747 135.1657 67° East  Level Estimated
11:42PM 34.1163 135.2866 67° East  Level Estimated
11:43PM 34.1578 135.4076 67° East  Level Estimated
11:44PM 34.1992 135.5287 68° East  Level Estimated
11:45PM 34.2405 135.6500 68° East  Level Estimated
11:46PM 34.2817 135.7714 68° East  Level Estimated
11:47PM 34.3227 135.8929 68° East  Level Estimated
11:48PM 34.3636 136.0145 68° East  Level Estimated
11:49PM 34.4044 136.1362 68° East  Level Estimated
11:50PM 34.4451 136.2581 68° East  Level Estimated
11:51PM 34.4857 136.3801 68° East  Level Estimated
11:52PM 34.5261 136.5021 68° East  Level Estimated
11:53PM 34.5681 136.6294 68° East  Level Estimated
11:54PM 34.6100 136.7569 68° East  Level Estimated
11:55PM 34.6517 136.8844 68° East  Level Estimated
11:56PM 34.6924 137.0095 68° East  Level Estimated
11:57PM 34.7331 137.1347 68° East  Level Estimated
11:58PM 34.7735 137.2600 68° East  Level Estimated
11:59PM 34.8139 137.3855 69° East  Level Estimated
12:00AM 34.8541 137.5111 69° East  Level Estimated
12:01AM 34.8942 137.6367 69° East  Level Estimated
12:02AM 34.9342 137.7626 69° East  Level Estimated
12:03AM 34.9685 137.8708 69° East  Level Estimated
12:04AM 35.0027 137.9792 69° East  Level Estimated
12:05AM 35.0367 138.0876 69° East  Level Estimated
12:06AM 35.0707 138.1962 69° East  Level Estimated
12:07AM 35.1046 138.3048 69° East  Level Estimated
12:08AM 35.1384 138.4135 69° East  Level Estimated
12:09AM 35.1720 138.5223 69° East  Level Estimated
12:10AM 35.2056 138.6312 69° East  Level Estimated
12:11AM 35.2391 138.7401 69° East  Level Estimated
12:12AM 35.2725 138.8492 69° East  Level Estimated
12:13AM 35.3058 138.9584 69° East  Level Estimated
12:14AM 35.3390 139.0676 70° East  Level Estimated
12:15AM 35.3721 139.1770 70° East  Level Estimated
12:16AM 35.4051 139.2864 70° East  Level Estimated
12:17AM 35.4380 139.3959 70° East  Level Estimated
12:18AM 35.4708 139.5055 70° East  Level Estimated
12:19AM 35.5035 139.6152 70° East  Level Estimated
12:20AM 35.5361 139.7250 70° East  Level Estimated
12:21AM 35.5523 139.7797 70° East  Level Estimated
12:22AM 35.5523 139.7797 122° Southeast  Level Estimated
12:23AM 35.5523 139.7797 122° Southeast  Level Estimated
12:24AM 35.5523 139.7797 122° Southeast  Level Estimated
12:25AM 35.5523 139.7797 122° Southeast  Level Estimated
12:26AM 35.5523 139.7797 122° Southeast  Level Estimated
12:27AM 35.5523 139.7797 122° Southeast  Level Estimated
12:28AM 35.5523 139.7797 122° Southeast  Level Estimated
12:29AM 35.5523 139.7797 122° Southeast  Level Estimated
12:30AM 35.5523 139.7797 122° Southeast  Level Estimated
12:31AM 35.5523 139.7797 122° Southeast  Level Estimated
12:32AM 35.5523 139.7797 122° Southeast  Level Estimated
12:33AM 35.5523 139.7797 122° Southeast  Level Estimated
12:34AM 35.5523 139.7797 122° Southeast  Level Estimated
12:35AM 35.5523 139.7797 122° Southeast  Level Estimated
12:36AM 35.5523 139.7797 122° Southeast  Level Estimated
12:37AM 35.5523 139.7797 122° Southeast  Level Estimated
12:38AM 35.5523 139.7797 122° Southeast  Level Estimated
12:39AM 35.5523 139.7797 122° Southeast  Level Estimated
12:40AM 35.5523 139.7797 122° Southeast  Level Estimated
12:41AM 35.5523 139.7797 122° Southeast  Level Estimated